sensor_id;sensor_type;location;lat;lon;timestamp;P1;durP1;ratioP1;P2;durP2;ratioP2
81223;SDS011;70698;44.402;18.522;2023-11-21T00:00:00;382.17;;;145.60;;
81223;SDS011;70698;44.402;18.522;2023-11-21T00:02:26;464.58;;;178.65;;
81223;SDS011;70698;44.402;18.522;2023-11-21T00:04:52;442.77;;;168.68;;
81223;SDS011;70698;44.402;18.522;2023-11-21T00:07:18;469.55;;;185.10;;
81223;SDS011;70698;44.402;18.522;2023-11-21T00:09:43;492.88;;;204.10;;
81223;SDS011;70698;44.402;18.522;2023-11-21T00:12:09;545.65;;;219.68;;
81223;SDS011;70698;44.402;18.522;2023-11-21T00:14:39;549.90;;;228.82;;
81223;SDS011;70698;44.402;18.522;2023-11-21T00:17:05;483.60;;;185.55;;
81223;SDS011;70698;44.402;18.522;2023-11-21T00:19:31;689.80;;;308.38;;
81223;SDS011;70698;44.402;18.522;2023-11-21T00:21:58;354.80;;;130.48;;
81223;SDS011;70698;44.402;18.522;2023-11-21T00:24:24;336.75;;;122.13;;
81223;SDS011;70698;44.402;18.522;2023-11-21T00:26:51;315.88;;;115.05;;
81223;SDS011;70698;44.402;18.522;2023-11-21T00:29:18;529.72;;;209.23;;
81223;SDS011;70698;44.402;18.522;2023-11-21T00:31:44;572.28;;;230.30;;
81223;SDS011;70698;44.402;18.522;2023-11-21T00:34:11;658.20;;;271.92;;
81223;SDS011;70698;44.402;18.522;2023-11-21T00:36:37;482.02;;;180.90;;
81223;SDS011;70698;44.402;18.522;2023-11-21T00:39:03;355.92;;;128.90;;
81223;SDS011;70698;44.402;18.522;2023-11-21T00:41:31;166.85;;;63.75;;
81223;SDS011;70698;44.402;18.522;2023-11-21T00:43:57;153.00;;;59.03;;
81223;SDS011;70698;44.402;18.522;2023-11-21T00:46:24;230.57;;;83.72;;
81223;SDS011;70698;44.402;18.522;2023-11-21T00:48:52;117.50;;;49.70;;
81223;SDS011;70698;44.402;18.522;2023-11-21T00:51:19;312.63;;;122.38;;
81223;SDS011;70698;44.402;18.522;2023-11-21T00:53:45;327.33;;;129.30;;
81223;SDS011;70698;44.402;18.522;2023-11-21T00:56:11;317.73;;;125.38;;
81223;SDS011;70698;44.402;18.522;2023-11-21T00:58:38;328.10;;;138.32;;
81223;SDS011;70698;44.402;18.522;2023-11-21T01:01:07;342.35;;;138.07;;
81223;SDS011;70698;44.402;18.522;2023-11-21T01:03:33;318.17;;;128.68;;
81223;SDS011;70698;44.402;18.522;2023-11-21T01:05:59;285.00;;;119.32;;
81223;SDS011;70698;44.402;18.522;2023-11-21T01:08:25;239.27;;;98.68;;
81223;SDS011;70698;44.402;18.522;2023-11-21T01:10:51;230.90;;;93.63;;
81223;SDS011;70698;44.402;18.522;2023-11-21T01:13:16;224.60;;;94.68;;
81223;SDS011;70698;44.402;18.522;2023-11-21T01:15:42;229.75;;;96.28;;
81223;SDS011;70698;44.402;18.522;2023-11-21T01:18:08;240.02;;;100.35;;
81223;SDS011;70698;44.402;18.522;2023-11-21T01:23:01;231.32;;;95.82;;
81223;SDS011;70698;44.402;18.522;2023-11-21T01:25:27;242.88;;;103.82;;
81223;SDS011;70698;44.402;18.522;2023-11-21T01:27:53;239.27;;;99.68;;
81223;SDS011;70698;44.402;18.522;2023-11-21T01:30:18;239.63;;;99.68;;
81223;SDS011;70698;44.402;18.522;2023-11-21T01:32:44;269.23;;;111.78;;
81223;SDS011;70698;44.402;18.522;2023-11-21T01:35:10;431.65;;;172.88;;
81223;SDS011;70698;44.402;18.522;2023-11-21T01:37:36;460.92;;;177.23;;
81223;SDS011;70698;44.402;18.522;2023-11-21T01:40:03;383.05;;;150.55;;
81223;SDS011;70698;44.402;18.522;2023-11-21T01:42:33;440.98;;;174.77;;
81223;SDS011;70698;44.402;18.522;2023-11-21T01:45:00;396.63;;;152.20;;
81223;SDS011;70698;44.402;18.522;2023-11-21T01:47:30;329.88;;;130.23;;
81223;SDS011;70698;44.402;18.522;2023-11-21T01:49:57;309.45;;;122.03;;
81223;SDS011;70698;44.402;18.522;2023-11-21T01:52:23;294.25;;;118.18;;
81223;SDS011;70698;44.402;18.522;2023-11-21T01:54:49;267.88;;;108.22;;
81223;SDS011;70698;44.402;18.522;2023-11-21T01:57:15;268.08;;;108.53;;
81223;SDS011;70698;44.402;18.522;2023-11-21T01:59:41;303.25;;;122.80;;
81223;SDS011;70698;44.402;18.522;2023-11-21T02:02:08;298.48;;;122.13;;
81223;SDS011;70698;44.402;18.522;2023-11-21T02:04:36;344.65;;;137.73;;
81223;SDS011;70698;44.402;18.522;2023-11-21T02:07:03;450.10;;;182.32;;
81223;SDS011;70698;44.402;18.522;2023-11-21T02:09:31;446.35;;;178.57;;
81223;SDS011;70698;44.402;18.522;2023-11-21T02:11:59;478.50;;;204.23;;
81223;SDS011;70698;44.402;18.522;2023-11-21T02:14:25;416.60;;;173.35;;
81223;SDS011;70698;44.402;18.522;2023-11-21T02:16:53;317.63;;;126.35;;
81223;SDS011;70698;44.402;18.522;2023-11-21T02:19:21;402.77;;;168.25;;
81223;SDS011;70698;44.402;18.522;2023-11-21T02:21:53;382.00;;;160.77;;
81223;SDS011;70698;44.402;18.522;2023-11-21T02:24:23;354.35;;;149.43;;
81223;SDS011;70698;44.402;18.522;2023-11-21T02:26:49;359.77;;;147.55;;
81223;SDS011;70698;44.402;18.522;2023-11-21T02:29:19;309.08;;;130.10;;
81223;SDS011;70698;44.402;18.522;2023-11-21T02:31:51;343.33;;;141.90;;
81223;SDS011;70698;44.402;18.522;2023-11-21T02:34:20;370.40;;;154.23;;
81223;SDS011;70698;44.402;18.522;2023-11-21T02:36:47;361.05;;;148.60;;
81223;SDS011;70698;44.402;18.522;2023-11-21T02:39:16;267.55;;;116.90;;
81223;SDS011;70698;44.402;18.522;2023-11-21T02:41:43;264.02;;;113.95;;
81223;SDS011;70698;44.402;18.522;2023-11-21T02:44:09;263.20;;;116.15;;
81223;SDS011;70698;44.402;18.522;2023-11-21T02:46:36;298.48;;;128.00;;
81223;SDS011;70698;44.402;18.522;2023-11-21T02:49:02;353.73;;;146.32;;
81223;SDS011;70698;44.402;18.522;2023-11-21T02:51:29;266.08;;;116.85;;
81223;SDS011;70698;44.402;18.522;2023-11-21T02:53:55;270.52;;;118.53;;
81223;SDS011;70698;44.402;18.522;2023-11-21T02:56:26;337.17;;;145.32;;
81223;SDS011;70698;44.402;18.522;2023-11-21T02:58:55;339.00;;;140.73;;
81223;SDS011;70698;44.402;18.522;2023-11-21T03:01:21;307.40;;;129.27;;
81223;SDS011;70698;44.402;18.522;2023-11-21T03:03:47;271.92;;;116.10;;
81223;SDS011;70698;44.402;18.522;2023-11-21T03:06:15;141.45;;;65.68;;
81223;SDS011;70698;44.402;18.522;2023-11-21T03:08:41;211.02;;;97.45;;
81223;SDS011;70698;44.402;18.522;2023-11-21T03:11:07;308.00;;;131.77;;
81223;SDS011;70698;44.402;18.522;2023-11-21T03:13:33;315.13;;;135.07;;
81223;SDS011;70698;44.402;18.522;2023-11-21T03:15:59;358.38;;;145.38;;
81223;SDS011;70698;44.402;18.522;2023-11-21T03:18:25;309.05;;;129.95;;
81223;SDS011;70698;44.402;18.522;2023-11-21T03:20:52;260.90;;;111.00;;
81223;SDS011;70698;44.402;18.522;2023-11-21T03:23:18;240.18;;;100.85;;
81223;SDS011;70698;44.402;18.522;2023-11-21T03:25:44;250.77;;;104.05;;
81223;SDS011;70698;44.402;18.522;2023-11-21T03:28:09;362.88;;;134.15;;
81223;SDS011;70698;44.402;18.522;2023-11-21T03:30:35;373.98;;;138.75;;
81223;SDS011;70698;44.402;18.522;2023-11-21T03:33:01;253.95;;;101.80;;
81223;SDS011;70698;44.402;18.522;2023-11-21T03:35:26;197.60;;;83.18;;
81223;SDS011;70698;44.402;18.522;2023-11-21T03:37:53;203.02;;;85.82;;
81223;SDS011;70698;44.402;18.522;2023-11-21T03:40:19;324.20;;;126.97;;
81223;SDS011;70698;44.402;18.522;2023-11-21T03:42:46;361.65;;;133.77;;
81223;SDS011;70698;44.402;18.522;2023-11-21T03:45:12;289.95;;;116.90;;
81223;SDS011;70698;44.402;18.522;2023-11-21T03:47:40;277.50;;;111.15;;
81223;SDS011;70698;44.402;18.522;2023-11-21T03:50:07;232.25;;;96.45;;
81223;SDS011;70698;44.402;18.522;2023-11-21T03:52:34;205.40;;;87.90;;
81223;SDS011;70698;44.402;18.522;2023-11-21T03:55:01;236.60;;;98.30;;
81223;SDS011;70698;44.402;18.522;2023-11-21T03:57:27;140.40;;;60.03;;
81223;SDS011;70698;44.402;18.522;2023-11-21T03:59:53;157.90;;;66.82;;
81223;SDS011;70698;44.402;18.522;2023-11-21T04:02:19;195.13;;;83.85;;
81223;SDS011;70698;44.402;18.522;2023-11-21T04:04:45;186.60;;;80.47;;
81223;SDS011;70698;44.402;18.522;2023-11-21T04:07:10;179.38;;;78.55;;
81223;SDS011;70698;44.402;18.522;2023-11-21T04:09:38;142.50;;;62.45;;
81223;SDS011;70698;44.402;18.522;2023-11-21T04:12:05;156.32;;;66.93;;
81223;SDS011;70698;44.402;18.522;2023-11-21T04:14:31;168.90;;;75.63;;
81223;SDS011;70698;44.402;18.522;2023-11-21T04:16:57;166.18;;;73.03;;
81223;SDS011;70698;44.402;18.522;2023-11-21T04:19:22;162.38;;;71.68;;
81223;SDS011;70698;44.402;18.522;2023-11-21T04:21:48;127.90;;;60.72;;
81223;SDS011;70698;44.402;18.522;2023-11-21T04:24:14;129.35;;;59.20;;
81223;SDS011;70698;44.402;18.522;2023-11-21T04:26:40;111.75;;;50.25;;
81223;SDS011;70698;44.402;18.522;2023-11-21T04:29:05;57.88;;;29.27;;
81223;SDS011;70698;44.402;18.522;2023-11-21T04:31:31;81.10;;;42.45;;
81223;SDS011;70698;44.402;18.522;2023-11-21T04:33:57;142.15;;;64.68;;
81223;SDS011;70698;44.402;18.522;2023-11-21T04:36:22;143.27;;;67.55;;
81223;SDS011;70698;44.402;18.522;2023-11-21T04:38:48;134.07;;;60.42;;
81223;SDS011;70698;44.402;18.522;2023-11-21T04:41:14;92.10;;;48.75;;
81223;SDS011;70698;44.402;18.522;2023-11-21T04:43:39;88.90;;;45.80;;
81223;SDS011;70698;44.402;18.522;2023-11-21T04:46:05;113.47;;;57.22;;
81223;SDS011;70698;44.402;18.522;2023-11-21T04:48:32;143.15;;;66.15;;
81223;SDS011;70698;44.402;18.522;2023-11-21T04:50:58;144.98;;;69.00;;
81223;SDS011;70698;44.402;18.522;2023-11-21T04:53:23;166.90;;;77.07;;
81223;SDS011;70698;44.402;18.522;2023-11-21T04:55:49;147.60;;;70.82;;
81223;SDS011;70698;44.402;18.522;2023-11-21T04:58:15;105.38;;;49.25;;
81223;SDS011;70698;44.402;18.522;2023-11-21T05:00:40;107.95;;;53.20;;
81223;SDS011;70698;44.402;18.522;2023-11-21T05:03:06;127.80;;;64.65;;
81223;SDS011;70698;44.402;18.522;2023-11-21T05:05:32;190.65;;;79.10;;
81223;SDS011;70698;44.402;18.522;2023-11-21T05:07:59;86.30;;;39.05;;
81223;SDS011;70698;44.402;18.522;2023-11-21T05:10:25;132.55;;;58.05;;
81223;SDS011;70698;44.402;18.522;2023-11-21T05:12:50;74.43;;;34.88;;
81223;SDS011;70698;44.402;18.522;2023-11-21T05:15:16;36.22;;;19.33;;
81223;SDS011;70698;44.402;18.522;2023-11-21T05:17:45;54.33;;;25.95;;
81223;SDS011;70698;44.402;18.522;2023-11-21T05:20:11;78.63;;;35.97;;
81223;SDS011;70698;44.402;18.522;2023-11-21T05:22:38;33.63;;;19.20;;
81223;SDS011;70698;44.402;18.522;2023-11-21T05:25:05;28.55;;;14.80;;
81223;SDS011;70698;44.402;18.522;2023-11-21T05:27:32;24.55;;;14.80;;
81223;SDS011;70698;44.402;18.522;2023-11-21T05:29:58;21.25;;;13.07;;
81223;SDS011;70698;44.402;18.522;2023-11-21T05:32:26;43.38;;;22.33;;
81223;SDS011;70698;44.402;18.522;2023-11-21T05:34:52;88.15;;;39.97;;
81223;SDS011;70698;44.402;18.522;2023-11-21T05:37:18;83.45;;;42.35;;
81223;SDS011;70698;44.402;18.522;2023-11-21T05:39:43;90.28;;;46.00;;
81223;SDS011;70698;44.402;18.522;2023-11-21T05:42:09;102.30;;;50.58;;
81223;SDS011;70698;44.402;18.522;2023-11-21T05:44:36;145.10;;;66.15;;
81223;SDS011;70698;44.402;18.522;2023-11-21T05:47:02;153.50;;;68.30;;
81223;SDS011;70698;44.402;18.522;2023-11-21T05:49:28;128.00;;;58.63;;
81223;SDS011;70698;44.402;18.522;2023-11-21T05:51:55;156.05;;;68.20;;
81223;SDS011;70698;44.402;18.522;2023-11-21T05:54:21;148.45;;;67.07;;
81223;SDS011;70698;44.402;18.522;2023-11-21T05:56:48;128.63;;;57.60;;
81223;SDS011;70698;44.402;18.522;2023-11-21T05:59:14;146.35;;;64.70;;
81223;SDS011;70698;44.402;18.522;2023-11-21T06:01:40;168.00;;;64.90;;
81223;SDS011;70698;44.402;18.522;2023-11-21T06:04:06;173.80;;;66.60;;
81223;SDS011;70698;44.402;18.522;2023-11-21T06:06:33;177.57;;;63.20;;
81223;SDS011;70698;44.402;18.522;2023-11-21T06:08:59;119.53;;;52.45;;
81223;SDS011;70698;44.402;18.522;2023-11-21T06:11:25;120.00;;;50.75;;
81223;SDS011;70698;44.402;18.522;2023-11-21T06:13:50;164.10;;;67.43;;
81223;SDS011;70698;44.402;18.522;2023-11-21T06:16:18;138.68;;;60.80;;
81223;SDS011;70698;44.402;18.522;2023-11-21T06:18:47;618.53;;;264.95;;
81223;SDS011;70698;44.402;18.522;2023-11-21T06:21:13;411.95;;;145.45;;
81223;SDS011;70698;44.402;18.522;2023-11-21T06:23:39;672.92;;;268.05;;
81223;SDS011;70698;44.402;18.522;2023-11-21T06:26:05;821.10;;;337.67;;
81223;SDS011;70698;44.402;18.522;2023-11-21T06:28:31;704.85;;;289.05;;
81223;SDS011;70698;44.402;18.522;2023-11-21T06:30:57;688.60;;;283.58;;
81223;SDS011;70698;44.402;18.522;2023-11-21T06:33:24;669.33;;;275.20;;
81223;SDS011;70698;44.402;18.522;2023-11-21T06:35:52;499.80;;;188.77;;
81223;SDS011;70698;44.402;18.522;2023-11-21T06:38:18;500.00;;;192.32;;
81223;SDS011;70698;44.402;18.522;2023-11-21T06:40:45;848.78;;;375.73;;
81223;SDS011;70698;44.402;18.522;2023-11-21T06:43:10;760.55;;;335.40;;
81223;SDS011;70698;44.402;18.522;2023-11-21T06:45:36;581.78;;;247.00;;
81223;SDS011;70698;44.402;18.522;2023-11-21T06:48:02;485.35;;;191.77;;
81223;SDS011;70698;44.402;18.522;2023-11-21T06:50:27;392.48;;;154.82;;
81223;SDS011;70698;44.402;18.522;2023-11-21T06:52:53;477.27;;;194.45;;
81223;SDS011;70698;44.402;18.522;2023-11-21T06:55:19;394.27;;;150.70;;
81223;SDS011;70698;44.402;18.522;2023-11-21T06:57:45;206.02;;;86.00;;
81223;SDS011;70698;44.402;18.522;2023-11-21T07:00:12;255.27;;;102.80;;
81223;SDS011;70698;44.402;18.522;2023-11-21T07:02:40;346.75;;;140.68;;
81223;SDS011;70698;44.402;18.522;2023-11-21T07:05:06;265.02;;;108.97;;
81223;SDS011;70698;44.402;18.522;2023-11-21T07:07:32;198.00;;;82.95;;
81223;SDS011;70698;44.402;18.522;2023-11-21T07:10:00;326.05;;;132.10;;
81223;SDS011;70698;44.402;18.522;2023-11-21T07:12:28;291.80;;;114.97;;
81223;SDS011;70698;44.402;18.522;2023-11-21T07:14:56;325.40;;;131.40;;
81223;SDS011;70698;44.402;18.522;2023-11-21T07:17:23;303.17;;;131.02;;
81223;SDS011;70698;44.402;18.522;2023-11-21T07:19:49;318.95;;;127.55;;
81223;SDS011;70698;44.402;18.522;2023-11-21T07:22:15;293.13;;;125.55;;
81223;SDS011;70698;44.402;18.522;2023-11-21T07:24:49;196.32;;;85.78;;
81223;SDS011;70698;44.402;18.522;2023-11-21T07:27:17;179.43;;;80.75;;
81223;SDS011;70698;44.402;18.522;2023-11-21T07:29:43;168.38;;;78.90;;
81223;SDS011;70698;44.402;18.522;2023-11-21T07:32:09;232.57;;;105.38;;
81223;SDS011;70698;44.402;18.522;2023-11-21T07:34:36;273.85;;;122.70;;
81223;SDS011;70698;44.402;18.522;2023-11-21T07:37:02;283.80;;;122.03;;
81223;SDS011;70698;44.402;18.522;2023-11-21T07:39:28;258.75;;;114.10;;
81223;SDS011;70698;44.402;18.522;2023-11-21T07:41:55;234.98;;;111.28;;
81223;SDS011;70698;44.402;18.522;2023-11-21T07:44:21;245.07;;;115.15;;
81223;SDS011;70698;44.402;18.522;2023-11-21T07:46:48;262.08;;;122.07;;
81223;SDS011;70698;44.402;18.522;2023-11-21T07:49:15;233.43;;;110.68;;
81223;SDS011;70698;44.402;18.522;2023-11-21T07:51:42;281.73;;;129.70;;
81223;SDS011;70698;44.402;18.522;2023-11-21T07:54:09;284.88;;;133.60;;
81223;SDS011;70698;44.402;18.522;2023-11-21T07:56:35;318.27;;;150.20;;
81223;SDS011;70698;44.402;18.522;2023-11-21T07:59:01;330.50;;;155.65;;
81223;SDS011;70698;44.402;18.522;2023-11-21T08:01:26;299.65;;;138.57;;
81223;SDS011;70698;44.402;18.522;2023-11-21T08:03:53;278.77;;;129.02;;
81223;SDS011;70698;44.402;18.522;2023-11-21T08:06:22;297.45;;;136.27;;
81223;SDS011;70698;44.402;18.522;2023-11-21T08:08:49;279.92;;;134.90;;
81223;SDS011;70698;44.402;18.522;2023-11-21T08:11:15;263.08;;;128.60;;
81223;SDS011;70698;44.402;18.522;2023-11-21T08:13:41;248.02;;;123.40;;
81223;SDS011;70698;44.402;18.522;2023-11-21T08:16:07;231.90;;;115.18;;
81223;SDS011;70698;44.402;18.522;2023-11-21T08:18:33;276.85;;;131.15;;
81223;SDS011;70698;44.402;18.522;2023-11-21T08:20:59;289.05;;;137.60;;
81223;SDS011;70698;44.402;18.522;2023-11-21T08:23:25;281.63;;;136.88;;
81223;SDS011;70698;44.402;18.522;2023-11-21T08:25:51;278.20;;;134.07;;
81223;SDS011;70698;44.402;18.522;2023-11-21T08:28:18;298.55;;;142.52;;
81223;SDS011;70698;44.402;18.522;2023-11-21T08:30:44;329.33;;;157.65;;
81223;SDS011;70698;44.402;18.522;2023-11-21T08:33:09;218.20;;;103.55;;
81223;SDS011;70698;44.402;18.522;2023-11-21T08:35:37;300.48;;;150.63;;
81223;SDS011;70698;44.402;18.522;2023-11-21T08:38:03;375.58;;;189.90;;
81223;SDS011;70698;44.402;18.522;2023-11-21T08:40:29;382.52;;;195.40;;
81223;SDS011;70698;44.402;18.522;2023-11-21T08:42:55;450.98;;;233.68;;
81223;SDS011;70698;44.402;18.522;2023-11-21T08:45:21;441.48;;;220.52;;
81223;SDS011;70698;44.402;18.522;2023-11-21T08:47:47;425.90;;;218.15;;
81223;SDS011;70698;44.402;18.522;2023-11-21T08:50:13;447.17;;;224.45;;
81223;SDS011;70698;44.402;18.522;2023-11-21T08:52:40;394.05;;;195.50;;
81223;SDS011;70698;44.402;18.522;2023-11-21T08:55:06;377.83;;;193.25;;
81223;SDS011;70698;44.402;18.522;2023-11-21T08:57:36;400.20;;;193.50;;
81223;SDS011;70698;44.402;18.522;2023-11-21T09:00:05;317.98;;;152.55;;
81223;SDS011;70698;44.402;18.522;2023-11-21T09:02:36;360.88;;;170.60;;
81223;SDS011;70698;44.402;18.522;2023-11-21T09:05:03;390.48;;;176.20;;
81223;SDS011;70698;44.402;18.522;2023-11-21T09:07:32;385.38;;;185.18;;
81223;SDS011;70698;44.402;18.522;2023-11-21T09:09:58;344.23;;;149.98;;
81223;SDS011;70698;44.402;18.522;2023-11-21T09:12:24;300.40;;;137.27;;
81223;SDS011;70698;44.402;18.522;2023-11-21T09:14:52;290.15;;;133.18;;
81223;SDS011;70698;44.402;18.522;2023-11-21T09:17:17;272.13;;;128.88;;
81223;SDS011;70698;44.402;18.522;2023-11-21T09:19:44;281.58;;;129.20;;
81223;SDS011;70698;44.402;18.522;2023-11-21T09:22:12;295.27;;;131.10;;
81223;SDS011;70698;44.402;18.522;2023-11-21T09:24:38;215.43;;;101.60;;
81223;SDS011;70698;44.402;18.522;2023-11-21T09:27:03;195.07;;;94.50;;
81223;SDS011;70698;44.402;18.522;2023-11-21T09:29:30;191.75;;;94.32;;
81223;SDS011;70698;44.402;18.522;2023-11-21T09:31:57;174.13;;;86.93;;
81223;SDS011;70698;44.402;18.522;2023-11-21T09:34:25;162.20;;;84.87;;
81223;SDS011;70698;44.402;18.522;2023-11-21T09:36:51;181.73;;;89.18;;
81223;SDS011;70698;44.402;18.522;2023-11-21T09:39:17;177.40;;;83.72;;
81223;SDS011;70698;44.402;18.522;2023-11-21T09:47:02;99.75;;;42.80;;
81223;SDS011;70698;44.402;18.522;2023-11-21T09:49:28;104.57;;;43.72;;
81223;SDS011;70698;44.402;18.522;2023-11-21T09:51:57;119.07;;;46.85;;
81223;SDS011;70698;44.402;18.522;2023-11-21T09:54:29;136.30;;;51.55;;
81223;SDS011;70698;44.402;18.522;2023-11-21T09:56:57;119.25;;;50.28;;
81223;SDS011;70698;44.402;18.522;2023-11-21T10:01:55;113.10;;;47.10;;
81223;SDS011;70698;44.402;18.522;2023-11-21T10:04:23;121.88;;;49.83;;
81223;SDS011;70698;44.402;18.522;2023-11-21T10:06:49;109.60;;;47.53;;
81223;SDS011;70698;44.402;18.522;2023-11-21T10:09:17;115.00;;;51.15;;
81223;SDS011;70698;44.402;18.522;2023-11-21T10:11:45;133.35;;;56.72;;
81223;SDS011;70698;44.402;18.522;2023-11-21T10:14:14;128.60;;;52.55;;
81223;SDS011;70698;44.402;18.522;2023-11-21T10:16:44;105.20;;;50.05;;
81223;SDS011;70698;44.402;18.522;2023-11-21T10:19:12;121.18;;;50.28;;
81223;SDS011;70698;44.402;18.522;2023-11-21T10:21:41;111.43;;;51.30;;
81223;SDS011;70698;44.402;18.522;2023-11-21T10:24:07;126.50;;;53.78;;
81223;SDS011;70698;44.402;18.522;2023-11-21T10:26:33;125.72;;;54.40;;
81223;SDS011;70698;44.402;18.522;2023-11-21T10:28:59;128.38;;;54.17;;
81223;SDS011;70698;44.402;18.522;2023-11-21T10:31:29;108.03;;;47.75;;
81223;SDS011;70698;44.402;18.522;2023-11-21T10:34:17;110.75;;;48.70;;
81223;SDS011;70698;44.402;18.522;2023-11-21T10:36:41;120.25;;;53.85;;
81223;SDS011;70698;44.402;18.522;2023-11-21T10:39:08;104.97;;;49.67;;
81223;SDS011;70698;44.402;18.522;2023-11-21T10:41:35;96.13;;;46.28;;
81223;SDS011;70698;44.402;18.522;2023-11-21T10:44:01;86.90;;;43.65;;
81223;SDS011;70698;44.402;18.522;2023-11-21T10:46:29;81.43;;;39.55;;
81223;SDS011;70698;44.402;18.522;2023-11-21T10:48:55;71.75;;;37.53;;
81223;SDS011;70698;44.402;18.522;2023-11-21T10:51:21;62.85;;;34.25;;
81223;SDS011;70698;44.402;18.522;2023-11-21T10:53:51;53.60;;;29.77;;
81223;SDS011;70698;44.402;18.522;2023-11-21T10:56:18;45.55;;;26.70;;
81223;SDS011;70698;44.402;18.522;2023-11-21T10:58:48;44.60;;;24.98;;
81223;SDS011;70698;44.402;18.522;2023-11-21T11:01:15;45.70;;;25.23;;
81223;SDS011;70698;44.402;18.522;2023-11-21T11:03:43;44.67;;;24.58;;
81223;SDS011;70698;44.402;18.522;2023-11-21T11:06:09;29.15;;;16.85;;
81223;SDS011;70698;44.402;18.522;2023-11-21T11:08:38;29.88;;;17.25;;
81223;SDS011;70698;44.402;18.522;2023-11-21T11:11:05;23.55;;;15.75;;
81223;SDS011;70698;44.402;18.522;2023-11-21T11:13:31;26.08;;;16.80;;
81223;SDS011;70698;44.402;18.522;2023-11-21T11:15:58;28.83;;;17.85;;
81223;SDS011;70698;44.402;18.522;2023-11-21T11:18:28;25.75;;;16.15;;
81223;SDS011;70698;44.402;18.522;2023-11-21T11:21:00;23.95;;;14.75;;
81223;SDS011;70698;44.402;18.522;2023-11-21T11:26:16;21.27;;;15.00;;
81223;SDS011;70698;44.402;18.522;2023-11-21T11:28:47;26.23;;;15.98;;
81223;SDS011;70698;44.402;18.522;2023-11-21T11:34:01;27.30;;;17.15;;
81223;SDS011;70698;44.402;18.522;2023-11-21T11:39:02;36.20;;;19.73;;
81223;SDS011;70698;44.402;18.522;2023-11-21T11:41:31;30.75;;;18.67;;
81223;SDS011;70698;44.402;18.522;2023-11-21T11:44:02;46.83;;;20.60;;
81223;SDS011;70698;44.402;18.522;2023-11-21T11:46:42;28.25;;;17.45;;
81223;SDS011;70698;44.402;18.522;2023-11-21T11:49:23;29.35;;;17.95;;
81223;SDS011;70698;44.402;18.522;2023-11-21T11:55:11;32.15;;;16.58;;
81223;SDS011;70698;44.402;18.522;2023-11-21T11:57:43;23.83;;;15.00;;
81223;SDS011;70698;44.402;18.522;2023-11-21T12:00:19;21.95;;;13.55;;
81223;SDS011;70698;44.402;18.522;2023-11-21T12:03:00;24.90;;;14.02;;
81223;SDS011;70698;44.402;18.522;2023-11-21T12:05:29;37.42;;;14.57;;
81223;SDS011;70698;44.402;18.522;2023-11-21T12:08:01;38.95;;;22.17;;
81223;SDS011;70698;44.402;18.522;2023-11-21T12:10:29;36.08;;;19.08;;
81223;SDS011;70698;44.402;18.522;2023-11-21T12:12:57;53.42;;;29.55;;
81223;SDS011;70698;44.402;18.522;2023-11-21T12:15:24;47.27;;;26.30;;
81223;SDS011;70698;44.402;18.522;2023-11-21T12:17:51;29.55;;;17.70;;
81223;SDS011;70698;44.402;18.522;2023-11-21T12:20:21;22.27;;;14.02;;
81223;SDS011;70698;44.402;18.522;2023-11-21T12:22:49;26.50;;;15.75;;
81223;SDS011;70698;44.402;18.522;2023-11-21T12:25:17;29.52;;;16.70;;
81223;SDS011;70698;44.402;18.522;2023-11-21T12:27:44;19.73;;;11.63;;
81223;SDS011;70698;44.402;18.522;2023-11-21T12:30:11;27.20;;;16.38;;
81223;SDS011;70698;44.402;18.522;2023-11-21T12:32:45;22.23;;;14.73;;
81223;SDS011;70698;44.402;18.522;2023-11-21T12:35:14;35.20;;;19.52;;
81223;SDS011;70698;44.402;18.522;2023-11-21T12:37:41;32.10;;;18.73;;
81223;SDS011;70698;44.402;18.522;2023-11-21T12:42:44;43.03;;;25.20;;
81223;SDS011;70698;44.402;18.522;2023-11-21T12:45:24;53.35;;;31.02;;
81223;SDS011;70698;44.402;18.522;2023-11-21T12:47:51;44.08;;;22.77;;
81223;SDS011;70698;44.402;18.522;2023-11-21T12:50:20;47.55;;;27.95;;
81223;SDS011;70698;44.402;18.522;2023-11-21T12:52:51;66.80;;;35.63;;
81223;SDS011;70698;44.402;18.522;2023-11-21T12:55:21;69.05;;;33.97;;
81223;SDS011;70698;44.402;18.522;2023-11-21T12:57:48;44.67;;;25.70;;
81223;SDS011;70698;44.402;18.522;2023-11-21T13:00:20;45.83;;;25.77;;
81223;SDS011;70698;44.402;18.522;2023-11-21T13:02:56;43.75;;;26.33;;
81223;SDS011;70698;44.402;18.522;2023-11-21T13:05:24;38.90;;;23.33;;
81223;SDS011;70698;44.402;18.522;2023-11-21T13:07:54;44.08;;;25.27;;
81223;SDS011;70698;44.402;18.522;2023-11-21T13:12:51;32.95;;;18.80;;
81223;SDS011;70698;44.402;18.522;2023-11-21T13:15:18;21.90;;;13.80;;
81223;SDS011;70698;44.402;18.522;2023-11-21T13:17:44;27.55;;;17.30;;
81223;SDS011;70698;44.402;18.522;2023-11-21T13:20:11;26.63;;;16.90;;
81223;SDS011;70698;44.402;18.522;2023-11-21T13:22:52;33.28;;;18.17;;
81223;SDS011;70698;44.402;18.522;2023-11-21T13:25:29;44.72;;;25.35;;
81223;SDS011;70698;44.402;18.522;2023-11-21T13:27:59;22.55;;;15.07;;
81223;SDS011;70698;44.402;18.522;2023-11-21T13:30:26;16.92;;;11.23;;
81223;SDS011;70698;44.402;18.522;2023-11-21T13:32:53;18.42;;;13.15;;
81223;SDS011;70698;44.402;18.522;2023-11-21T13:35:22;19.25;;;13.48;;
81223;SDS011;70698;44.402;18.522;2023-11-21T13:38:03;20.57;;;13.73;;
81223;SDS011;70698;44.402;18.522;2023-11-21T13:40:31;22.77;;;14.70;;
81223;SDS011;70698;44.402;18.522;2023-11-21T13:42:59;22.88;;;15.30;;
81223;SDS011;70698;44.402;18.522;2023-11-21T13:45:29;22.77;;;14.60;;
81223;SDS011;70698;44.402;18.522;2023-11-21T13:47:56;24.08;;;15.38;;
81223;SDS011;70698;44.402;18.522;2023-11-21T13:50:27;20.92;;;13.52;;
81223;SDS011;70698;44.402;18.522;2023-11-21T13:52:59;20.30;;;14.18;;
81223;SDS011;70698;44.402;18.522;2023-11-21T13:55:34;17.23;;;12.13;;
81223;SDS011;70698;44.402;18.522;2023-11-21T13:58:01;28.55;;;17.02;;
81223;SDS011;70698;44.402;18.522;2023-11-21T14:00:28;20.25;;;12.73;;
81223;SDS011;70698;44.402;18.522;2023-11-21T14:03:13;51.10;;;29.25;;
81223;SDS011;70698;44.402;18.522;2023-11-21T14:05:46;116.65;;;56.70;;
81223;SDS011;70698;44.402;18.522;2023-11-21T14:08:15;80.28;;;43.15;;
81223;SDS011;70698;44.402;18.522;2023-11-21T14:10:45;44.13;;;27.33;;
81223;SDS011;70698;44.402;18.522;2023-11-21T14:13:16;33.30;;;21.20;;
81223;SDS011;70698;44.402;18.522;2023-11-21T14:15:43;44.45;;;25.73;;
81223;SDS011;70698;44.402;18.522;2023-11-21T14:18:11;50.50;;;29.33;;
81223;SDS011;70698;44.402;18.522;2023-11-21T14:20:39;62.38;;;33.67;;